createdAt,value
2018-12-01T00:00:47.997Z,997.31
2018-12-01T00:01:54.137Z,997.27
2018-12-01T00:03:00.256Z,997.31
2018-12-01T00:04:06.406Z,997.27
2018-12-01T00:05:12.537Z,997.29
2018-12-01T00:06:18.684Z,997.28
2018-12-01T00:07:24.800Z,997.21
2018-12-01T00:08:30.933Z,997.26
2018-12-01T00:09:37.076Z,997.22
2018-12-01T00:10:43.217Z,997.23
2018-12-01T00:11:49.349Z,997.20
2018-12-01T00:12:55.473Z,997.21
2018-12-01T00:14:01.613Z,997.21
2018-12-01T00:15:07.757Z,997.24
2018-12-01T00:16:13.878Z,997.18
2018-12-01T00:17:20.025Z,997.23
2018-12-01T00:18:26.154Z,997.26
2018-12-01T00:19:32.286Z,997.30
2018-12-01T00:20:38.418Z,997.33
2018-12-01T00:21:44.563Z,997.36
2018-12-01T00:22:50.679Z,997.37
2018-12-01T00:23:56.813Z,997.34
2018-12-01T00:25:02.958Z,997.34
2018-12-01T00:26:09.082Z,997.34
2018-12-01T00:27:15.240Z,997.34
2018-12-01T00:28:21.348Z,997.35
2018-12-01T00:29:27.482Z,997.33
2018-12-01T00:30:33.625Z,997.30
2018-12-01T00:31:39.751Z,997.33
2018-12-01T00:32:45.885Z,997.32
2018-12-01T00:33:52.017Z,997.30
2018-12-01T00:34:58.139Z,997.26
2018-12-01T00:36:04.271Z,997.27
2018-12-01T00:37:10.421Z,997.31
2018-12-01T00:38:16.548Z,997.30
2018-12-01T00:39:22.687Z,997.31
2018-12-01T00:40:28.827Z,997.29
2018-12-01T00:41:34.941Z,997.29
2018-12-01T00:42:41.078Z,997.29
2018-12-01T00:43:47.207Z,997.27
2018-12-01T00:44:53.348Z,997.34
2018-12-01T00:45:59.587Z,997.33
2018-12-01T00:47:05.602Z,997.37
2018-12-01T00:48:11.743Z,997.36
2018-12-01T00:49:17.876Z,997.33
2018-12-01T00:50:24.009Z,997.32
2018-12-01T00:51:30.141Z,997.34
2018-12-01T00:52:36.277Z,997.33
2018-12-01T00:53:42.386Z,997.39
2018-12-01T00:54:48.527Z,997.38
2018-12-01T00:55:55.662Z,997.37
2018-12-01T00:57:00.815Z,997.33
2018-12-01T00:58:06.924Z,997.41
2018-12-01T00:59:13.040Z,997.42
2018-12-01T01:00:19.190Z,997.40
2018-12-01T01:01:25.308Z,997.45
2018-12-01T01:02:31.588Z,997.43
2018-12-01T01:03:37.580Z,997.42
2018-12-01T01:04:43.703Z,997.44
2018-12-01T01:05:49.835Z,997.43
2018-12-01T01:06:55.947Z,997.42
2018-12-01T01:08:02.079Z,997.40
2018-12-01T01:09:08.199Z,997.43
2018-12-01T01:10:14.330Z,997.42
2018-12-01T01:11:20.453Z,997.43
2018-12-01T01:12:26.570Z,997.41
2018-12-01T01:13:32.699Z,997.40
2018-12-01T01:14:38.817Z,997.39
2018-12-01T01:15:44.947Z,997.40
2018-12-01T01:16:51.063Z,997.36
2018-12-01T01:17:57.191Z,997.40
2018-12-01T01:19:03.315Z,997.37
2018-12-01T01:20:09.436Z,997.36
2018-12-01T01:21:15.549Z,997.43
2018-12-01T01:22:21.664Z,997.43
2018-12-01T01:23:27.788Z,997.47
2018-12-01T01:24:33.909Z,997.44
2018-12-01T01:25:40.033Z,997.46
2018-12-01T01:26:46.152Z,997.42
2018-12-01T01:27:52.260Z,997.46
2018-12-01T01:28:58.399Z,997.44
2018-12-01T01:30:04.504Z,997.43
2018-12-01T01:31:10.617Z,997.43
2018-12-01T01:32:16.749Z,997.48
2018-12-01T01:33:22.861Z,997.52
2018-12-01T01:34:28.987Z,997.50
2018-12-01T01:35:35.099Z,997.53
2018-12-01T01:36:41.213Z,997.55
2018-12-01T01:37:47.323Z,997.57
2018-12-01T01:38:53.451Z,997.60
2018-12-01T01:39:59.606Z,997.58
2018-12-01T01:41:05.684Z,997.58
2018-12-01T01:42:11.802Z,997.60
2018-12-01T01:43:17.915Z,997.58
2018-12-01T01:44:24.032Z,997.62
2018-12-01T01:45:30.151Z,997.62
2018-12-01T01:46:36.263Z,997.65
2018-12-01T01:47:42.374Z,997.65
2018-12-01T01:48:48.511Z,997.60
2018-12-01T01:49:54.613Z,997.58
2018-12-01T01:51:00.711Z,997.62
2018-12-01T01:52:06.842Z,997.63
2018-12-01T01:53:12.958Z,997.56
2018-12-01T01:54:19.065Z,997.59
2018-12-01T01:55:25.172Z,997.52
2018-12-01T01:56:31.283Z,997.49
2018-12-01T01:57:37.406Z,997.55
2018-12-01T01:58:43.517Z,997.57
2018-12-01T01:59:49.634Z,997.51
2018-12-01T02:00:55.738Z,997.52
2018-12-01T02:02:01.861Z,997.52
2018-12-01T02:03:07.975Z,997.50
2018-12-01T02:04:14.074Z,997.51
2018-12-01T02:05:20.197Z,997.48
2018-12-01T02:06:26.308Z,997.49
2018-12-01T02:07:32.425Z,997.48
2018-12-01T02:08:38.520Z,997.47
2018-12-01T02:09:44.651Z,997.46
2018-12-01T02:10:50.748Z,997.46
2018-12-01T02:11:56.879Z,997.45
2018-12-01T02:13:02.972Z,997.46
2018-12-01T02:14:09.085Z,997.44
2018-12-01T02:15:15.216Z,997.41
2018-12-01T02:16:21.319Z,997.43
2018-12-01T02:17:27.435Z,997.38
2018-12-01T02:18:33.545Z,997.46
2018-12-01T02:19:39.649Z,997.46
2018-12-01T02:20:45.803Z,997.40
2018-12-01T02:21:51.878Z,997.45
2018-12-01T02:22:57.987Z,997.41
2018-12-01T02:24:05.089Z,997.43
2018-12-01T02:25:10.210Z,997.47
2018-12-01T02:26:16.313Z,997.50
2018-12-01T02:27:22.439Z,997.44
2018-12-01T02:28:28.539Z,997.45
2018-12-01T02:29:35.642Z,997.48
2018-12-01T02:30:40.763Z,997.47
2018-12-01T02:31:46.884Z,997.41
2018-12-01T02:32:52.970Z,997.39
2018-12-01T02:33:59.095Z,997.41
2018-12-01T02:35:05.198Z,997.34
2018-12-01T02:36:11.311Z,997.43
2018-12-01T02:37:17.417Z,997.45
2018-12-01T02:38:23.526Z,997.37
2018-12-01T02:39:29.625Z,997.33
2018-12-01T02:40:35.749Z,997.28
2018-12-01T02:41:41.844Z,997.33
2018-12-01T02:42:47.954Z,997.31
2018-12-01T02:43:54.077Z,997.28
2018-12-01T02:45:00.182Z,997.33
2018-12-01T02:46:06.289Z,997.34
2018-12-01T02:47:12.407Z,997.29
2018-12-01T02:48:18.510Z,997.34
2018-12-01T02:49:24.622Z,997.34
2018-12-01T02:50:30.731Z,997.31
2018-12-01T02:51:36.841Z,997.28
2018-12-01T02:52:42.957Z,997.26
2018-12-01T02:53:49.062Z,997.26
2018-12-01T02:54:55.180Z,997.26
2018-12-01T02:56:01.279Z,997.23
2018-12-01T02:57:07.386Z,997.26
2018-12-01T02:58:13.500Z,997.31
2018-12-01T02:59:19.622Z,997.37
2018-12-01T03:00:25.731Z,997.40
2018-12-01T03:01:31.839Z,997.41
2018-12-01T03:02:37.950Z,997.40
2018-12-01T03:03:44.067Z,997.37
2018-12-01T03:04:50.173Z,997.37
2018-12-01T03:05:56.302Z,997.30
2018-12-01T03:07:02.385Z,997.24
2018-12-01T03:08:09.577Z,997.23
2018-12-01T03:09:14.618Z,997.20
2018-12-01T03:10:20.729Z,997.29
2018-12-01T03:11:26.838Z,997.35
2018-12-01T03:12:32.943Z,997.35
2018-12-01T03:13:39.046Z,997.38
2018-12-01T03:14:45.154Z,997.36
2018-12-01T03:15:51.278Z,997.32
2018-12-01T03:16:57.392Z,997.33
2018-12-01T03:18:03.584Z,997.31
2018-12-01T03:19:09.603Z,997.35
2018-12-01T03:20:15.703Z,997.33
2018-12-01T03:21:21.830Z,997.31
2018-12-01T03:22:27.934Z,997.30
2018-12-01T03:23:34.030Z,997.29
2018-12-01T03:24:40.136Z,997.33
2018-12-01T03:25:46.250Z,997.28
2018-12-01T03:26:52.367Z,997.28
2018-12-01T03:27:58.670Z,997.30
2018-12-01T03:29:04.577Z,997.26
2018-12-01T03:30:10.694Z,997.27
2018-12-01T03:31:16.806Z,997.30
2018-12-01T03:32:23.915Z,997.28
2018-12-01T03:33:29.017Z,997.26
2018-12-01T03:34:35.128Z,997.28
2018-12-01T03:35:41.244Z,997.29
2018-12-01T03:36:47.370Z,997.29
2018-12-01T03:37:53.576Z,997.30
2018-12-01T03:38:59.588Z,997.39
2018-12-01T03:40:05.696Z,997.39
2018-12-01T03:41:11.813Z,997.42
2018-12-01T03:42:17.932Z,997.40
2018-12-01T03:43:24.038Z,997.40
2018-12-01T03:44:30.150Z,997.36
2018-12-01T03:45:36.264Z,997.37
2018-12-01T03:46:42.383Z,997.39
2018-12-01T03:47:48.505Z,997.42
2018-12-01T03:48:54.603Z,997.47
2018-12-01T03:50:00.716Z,997.48
2018-12-01T03:51:06.847Z,997.51
2018-12-01T03:52:12.958Z,997.54
2018-12-01T03:53:19.063Z,997.54
2018-12-01T03:54:25.172Z,997.52
2018-12-01T03:55:31.290Z,997.50
2018-12-01T03:56:37.401Z,997.48
2018-12-01T03:57:43.513Z,997.51
2018-12-01T03:58:49.627Z,997.52
2018-12-01T03:59:56.235Z,997.52
2018-12-01T04:01:01.846Z,997.54
2018-12-01T04:02:07.969Z,997.52
2018-12-01T04:03:14.130Z,997.44
2018-12-01T04:04:20.194Z,997.51
2018-12-01T04:05:26.302Z,997.48
2018-12-01T04:06:32.416Z,997.48
2018-12-01T04:07:38.541Z,997.51
2018-12-01T04:08:44.656Z,997.53
2018-12-01T04:09:50.750Z,997.57
2018-12-01T04:10:57.870Z,997.53
2018-12-01T04:12:02.977Z,997.57
2018-12-01T04:13:09.097Z,997.59
2018-12-01T04:14:15.203Z,997.57
2018-12-01T04:15:21.314Z,997.60
2018-12-01T04:16:27.439Z,997.62
2018-12-01T04:17:33.546Z,997.58
2018-12-01T04:18:39.659Z,997.53
2018-12-01T04:19:45.771Z,997.51
2018-12-01T04:20:51.872Z,997.56
2018-12-01T04:21:57.991Z,997.58
2018-12-01T04:23:04.114Z,997.58
2018-12-01T04:24:10.199Z,997.52
2018-12-01T04:25:16.310Z,997.55
2018-12-01T04:26:22.416Z,997.53
2018-12-01T04:27:29.026Z,997.54
2018-12-01T04:28:34.640Z,997.51
2018-12-01T04:29:40.742Z,997.50
2018-12-01T04:30:46.855Z,997.47
2018-12-01T04:31:52.958Z,997.48
2018-12-01T04:32:59.074Z,997.48
2018-12-01T04:34:05.182Z,997.50
2018-12-01T04:35:11.285Z,997.50
2018-12-01T04:36:17.385Z,997.54
2018-12-01T04:37:23.598Z,997.57
2018-12-01T04:38:29.599Z,997.56
2018-12-01T04:39:35.701Z,997.58
2018-12-01T04:40:41.813Z,997.60
2018-12-01T04:41:47.906Z,997.59
2018-12-01T04:42:54.013Z,997.56
2018-12-01T04:44:00.122Z,997.59
2018-12-01T04:45:06.220Z,997.55
2018-12-01T04:46:12.332Z,997.62
2018-12-01T04:47:18.444Z,997.59
2018-12-01T04:48:24.540Z,997.59
2018-12-01T04:49:30.654Z,997.59
2018-12-01T04:50:36.760Z,997.60
2018-12-01T04:51:42.864Z,997.63
2018-12-01T04:52:48.977Z,997.66
2018-12-01T04:53:55.094Z,997.69
2018-12-01T04:55:01.189Z,997.69
2018-12-01T04:56:07.300Z,997.68
2018-12-01T04:57:13.404Z,997.68
2018-12-01T04:58:19.513Z,997.72
2018-12-01T04:59:25.618Z,997.73
2018-12-01T05:00:32.723Z,997.74
2018-12-01T05:01:37.852Z,997.71
2018-12-01T05:02:43.952Z,997.72
2018-12-01T05:03:50.066Z,997.72
2018-12-01T05:04:56.185Z,997.74
2018-12-01T05:06:02.288Z,997.75
2018-12-01T05:07:08.405Z,997.74
2018-12-01T05:08:14.503Z,997.75
2018-12-01T05:09:20.638Z,997.71
2018-12-01T05:10:26.736Z,997.75
2018-12-01T05:11:32.853Z,997.77
2018-12-01T05:12:38.967Z,997.80
2018-12-01T05:13:45.066Z,997.78
2018-12-01T05:14:51.205Z,997.81
2018-12-01T05:15:57.305Z,997.77
2018-12-01T05:17:03.414Z,997.79
2018-12-01T05:18:09.567Z,997.85
2018-12-01T05:19:15.633Z,997.82
2018-12-01T05:20:21.783Z,997.78
2018-12-01T05:21:27.872Z,997.77
2018-12-01T05:22:33.980Z,997.74
2018-12-01T05:23:40.103Z,997.74
2018-12-01T05:24:46.234Z,997.78
2018-12-01T05:25:52.323Z,997.76
2018-12-01T05:26:58.442Z,997.72
2018-12-01T05:28:04.572Z,997.74
2018-12-01T05:29:10.667Z,997.74
2018-12-01T05:30:16.787Z,997.79
2018-12-01T05:31:22.894Z,997.77
2018-12-01T05:32:29.025Z,997.75
2018-12-01T05:33:35.126Z,997.78
2018-12-01T05:34:41.239Z,997.72
2018-12-01T05:35:47.362Z,997.75
2018-12-01T05:36:53.580Z,997.80
2018-12-01T05:37:59.590Z,997.83
2018-12-01T05:39:05.707Z,997.84
2018-12-01T05:40:11.839Z,997.87
2018-12-01T05:41:17.942Z,997.86
2018-12-01T05:42:24.573Z,997.85
2018-12-01T05:43:30.180Z,997.83
2018-12-01T05:44:36.300Z,997.83
2018-12-01T05:45:42.421Z,997.84
2018-12-01T05:46:48.537Z,997.84
2018-12-01T05:47:54.655Z,997.84
2018-12-01T05:49:00.776Z,997.81
2018-12-01T05:50:06.892Z,997.82
2018-12-01T05:51:13.020Z,997.84
2018-12-01T05:52:19.123Z,997.86
2018-12-01T05:53:25.251Z,997.85
2018-12-01T05:54:31.373Z,997.79
2018-12-01T05:55:37.493Z,997.72
2018-12-01T05:56:43.615Z,997.78
2018-12-01T05:57:49.731Z,997.76
2018-12-01T05:58:55.847Z,997.83
2018-12-01T06:00:01.973Z,997.85
2018-12-01T06:01:08.105Z,997.85
2018-12-01T06:02:14.222Z,997.88
2018-12-01T06:03:20.342Z,997.89
2018-12-01T06:04:26.582Z,997.93
2018-12-01T06:05:32.593Z,997.94
2018-12-01T06:06:38.701Z,997.99
2018-12-01T06:07:44.830Z,998.07
2018-12-01T06:08:50.949Z,998.01
2018-12-01T06:09:57.079Z,997.95
2018-12-01T06:11:03.215Z,997.93
2018-12-01T06:12:09.322Z,997.91
2018-12-01T06:13:15.446Z,997.95
2018-12-01T06:14:21.561Z,997.94
2018-12-01T06:15:27.702Z,997.90
2018-12-01T06:16:34.844Z,997.91
2018-12-01T06:17:39.946Z,997.92
2018-12-01T06:18:46.057Z,997.91
2018-12-01T06:19:52.193Z,997.98
2018-12-01T06:20:58.320Z,997.93
2018-12-01T06:22:04.437Z,998.01
2018-12-01T06:23:10.571Z,998.02
2018-12-01T06:24:16.689Z,998.02
2018-12-01T06:25:23.811Z,998.06
2018-12-01T06:26:28.946Z,997.98
2018-12-01T06:27:35.058Z,998.04
2018-12-01T06:28:41.202Z,998.07
2018-12-01T06:29:48.314Z,998.02
2018-12-01T06:30:53.443Z,998.01
2018-12-01T06:31:59.571Z,998.01
2018-12-01T06:33:05.684Z,998.02
2018-12-01T06:34:11.818Z,998.04
2018-12-01T06:35:17.947Z,998.03
2018-12-01T06:36:24.069Z,998.01
2018-12-01T06:37:30.201Z,998.05
2018-12-01T06:38:36.328Z,998.02
2018-12-01T06:39:42.578Z,997.98
2018-12-01T06:40:48.585Z,998.00
2018-12-01T06:41:54.717Z,997.99
2018-12-01T06:43:00.831Z,998.04
2018-12-01T06:44:06.963Z,998.07
2018-12-01T06:45:13.082Z,998.04
2018-12-01T06:46:19.203Z,998.09
2018-12-01T06:47:25.343Z,998.06
2018-12-01T06:48:31.460Z,998.07
2018-12-01T06:49:37.588Z,998.07
2018-12-01T06:50:43.712Z,998.04
2018-12-01T06:51:49.852Z,998.02
2018-12-01T06:52:55.985Z,998.06
2018-12-01T06:54:02.109Z,998.04
2018-12-01T06:55:08.222Z,998.03
2018-12-01T06:56:14.353Z,998.07
2018-12-01T06:57:20.594Z,998.05
2018-12-01T06:58:26.618Z,998.02
2018-12-01T06:59:32.740Z,998.00
2018-12-01T07:00:38.860Z,998.08
2018-12-01T07:01:45.000Z,998.08
2018-12-01T07:02:51.132Z,998.10
2018-12-01T07:03:57.252Z,998.08
2018-12-01T07:05:03.372Z,998.13
2018-12-01T07:06:09.510Z,998.08
2018-12-01T07:07:15.637Z,998.15
2018-12-01T07:08:21.773Z,998.17
2018-12-01T07:09:27.895Z,998.20
2018-12-01T07:10:34.014Z,998.21
2018-12-01T07:11:40.162Z,998.26
2018-12-01T07:12:46.286Z,998.27
2018-12-01T07:13:52.606Z,998.27
2018-12-01T07:14:58.536Z,998.27
2018-12-01T07:16:04.665Z,998.22
2018-12-01T07:17:10.797Z,998.25
2018-12-01T07:18:16.927Z,998.22
2018-12-01T07:19:23.050Z,998.24
2018-12-01T07:20:29.181Z,998.20
2018-12-01T07:21:35.334Z,998.21
2018-12-01T07:22:41.468Z,998.18
2018-12-01T07:23:47.590Z,998.19
2018-12-01T07:24:53.726Z,998.20
2018-12-01T07:25:59.854Z,998.18
2018-12-01T07:27:05.980Z,998.19
2018-12-01T07:28:12.126Z,998.17
2018-12-01T07:29:18.261Z,998.11
2018-12-01T07:30:24.396Z,998.15
2018-12-01T07:31:30.515Z,998.08
2018-12-01T07:32:36.653Z,998.04
2018-12-01T07:33:42.788Z,998.05
2018-12-01T07:34:48.928Z,998.03
2018-12-01T07:35:55.050Z,998.05
2018-12-01T07:37:01.231Z,998.06
2018-12-01T07:38:07.321Z,998.04
2018-12-01T07:39:13.440Z,998.05
2018-12-01T07:40:19.585Z,998.10
2018-12-01T07:41:25.706Z,998.09
2018-12-01T07:42:31.836Z,998.08
2018-12-01T07:43:38.590Z,998.04
2018-12-01T07:44:44.100Z,998.03
2018-12-01T07:45:50.253Z,998.03
2018-12-01T07:46:56.387Z,997.97
2018-12-01T07:48:02.511Z,997.98
2018-12-01T07:49:08.649Z,997.97
2018-12-01T07:50:14.805Z,997.99
2018-12-01T07:51:20.929Z,997.97
2018-12-01T07:52:27.068Z,998.01
2018-12-01T07:53:33.253Z,997.99
2018-12-01T07:54:39.339Z,997.92
2018-12-01T07:55:45.477Z,997.94
2018-12-01T07:56:51.627Z,997.97
2018-12-01T07:57:57.755Z,998.00
2018-12-01T07:59:03.914Z,998.01
2018-12-01T08:00:10.052Z,998.02
2018-12-01T08:01:16.204Z,998.04
2018-12-01T08:02:22.333Z,998.07
2018-12-01T08:03:28.595Z,998.06
2018-12-01T08:04:34.624Z,998.06
2018-12-01T08:05:40.769Z,997.99
2018-12-01T08:06:46.920Z,998.00
2018-12-01T08:07:53.063Z,997.94
2018-12-01T08:08:59.271Z,997.98
2018-12-01T08:10:05.355Z,997.95
2018-12-01T08:11:11.504Z,997.97
2018-12-01T08:12:17.658Z,997.88
2018-12-01T08:13:23.806Z,997.86
2018-12-01T08:14:29.959Z,997.80
2018-12-01T08:15:36.102Z,997.86
2018-12-01T08:16:42.859Z,997.80
2018-12-01T08:17:48.411Z,997.78
2018-12-01T08:18:54.561Z,997.79
2018-12-01T08:20:01.715Z,997.72
2018-12-01T08:21:07.370Z,997.76
2018-12-01T08:22:13.017Z,997.74
2018-12-01T08:23:19.174Z,997.68
2018-12-01T08:24:25.340Z,997.77
2018-12-01T08:25:31.490Z,997.75
2018-12-01T08:26:37.653Z,997.76
2018-12-01T08:27:43.803Z,997.71
2018-12-01T08:28:49.971Z,997.76
2018-12-01T08:29:56.131Z,997.76
2018-12-01T08:31:02.284Z,997.76
2018-12-01T08:32:08.434Z,997.74
2018-12-01T08:33:14.600Z,997.74
2018-12-01T08:34:20.769Z,997.81
2018-12-01T08:35:26.915Z,997.80
2018-12-01T08:36:33.106Z,997.77
2018-12-01T08:37:39.257Z,997.76
2018-12-01T08:38:45.394Z,997.77
2018-12-01T08:39:51.570Z,997.76
2018-12-01T08:40:57.731Z,997.73
2018-12-01T08:42:03.897Z,997.68
2018-12-01T08:43:10.056Z,997.67
2018-12-01T08:44:16.221Z,997.69
2018-12-01T08:45:22.383Z,997.74
2018-12-01T08:46:28.541Z,997.76
2018-12-01T08:47:34.700Z,997.79
2018-12-01T08:48:40.871Z,997.78
2018-12-01T08:49:47.050Z,997.89
2018-12-01T08:50:53.213Z,997.85
2018-12-01T08:51:59.390Z,997.85
2018-12-01T08:53:05.563Z,997.87
2018-12-01T08:54:11.726Z,997.83
2018-12-01T08:55:17.905Z,997.81
2018-12-01T08:56:24.082Z,997.85
2018-12-01T08:57:30.254Z,997.85
2018-12-01T08:58:36.437Z,997.83
2018-12-01T08:59:42.614Z,997.87
2018-12-01T09:00:48.796Z,997.90
2018-12-01T09:01:54.997Z,997.84
2018-12-01T09:03:01.154Z,997.82
2018-12-01T09:04:07.346Z,997.79
2018-12-01T09:05:13.559Z,997.82
2018-12-01T09:06:19.706Z,997.76
2018-12-01T09:07:25.899Z,997.74
2018-12-01T09:08:32.068Z,997.75
2018-12-01T09:09:38.262Z,997.77
2018-12-01T09:10:44.435Z,997.73
2018-12-01T09:11:50.608Z,997.69
2018-12-01T09:13:01.439Z,997.72
2018-12-01T09:14:02.953Z,997.74
2018-12-01T09:15:09.129Z,997.75
2018-12-01T09:16:15.310Z,997.73
2018-12-01T09:17:21.475Z,997.71
2018-12-01T09:18:27.634Z,997.77
2018-12-01T09:19:33.832Z,997.80
2018-12-01T09:20:39.991Z,997.82
2018-12-01T09:21:46.156Z,997.90
2018-12-01T09:22:52.322Z,997.86
2018-12-01T09:23:58.499Z,997.87
2018-12-01T09:25:04.675Z,997.83
2018-12-01T09:26:10.858Z,997.83
2018-12-01T09:27:22.368Z,997.80
2018-12-01T09:28:23.215Z,997.87
2018-12-01T09:29:29.395Z,997.86
2018-12-01T09:30:35.592Z,997.90
2018-12-01T09:31:41.771Z,997.90
2018-12-01T09:32:47.955Z,997.85
2018-12-01T09:33:54.146Z,997.88
2018-12-01T09:35:00.334Z,997.91
2018-12-01T09:36:06.550Z,997.86
2018-12-01T09:37:12.751Z,997.85
2018-12-01T09:38:18.949Z,997.79
2018-12-01T09:39:25.140Z,997.74
2018-12-01T09:40:31.360Z,997.77
2018-12-01T09:41:37.567Z,997.78
2018-12-01T09:42:43.775Z,997.80
2018-12-01T09:43:49.979Z,997.85
2018-12-01T09:44:56.217Z,997.88
2018-12-01T09:46:02.418Z,997.87
2018-12-01T09:47:08.625Z,997.93
2018-12-01T09:48:15.842Z,997.91
2018-12-01T09:49:21.056Z,997.96
2018-12-01T09:50:27.284Z,997.92
2018-12-01T09:51:33.486Z,997.94
2018-12-01T09:52:39.690Z,997.93
2018-12-01T09:53:45.898Z,997.93
2018-12-01T09:54:52.096Z,997.94
2018-12-01T09:55:58.310Z,997.95
2018-12-01T09:57:04.499Z,997.97
2018-12-01T09:58:10.709Z,997.92
2018-12-01T09:59:16.901Z,997.95
2018-12-01T10:00:23.106Z,997.94
2018-12-01T10:01:29.298Z,997.97
2018-12-01T10:02:35.495Z,997.98
2018-12-01T10:03:41.696Z,997.98
2018-12-01T10:04:47.873Z,998.00
2018-12-01T10:05:54.079Z,997.99
2018-12-01T10:07:00.266Z,997.93
2018-12-01T10:08:06.461Z,997.89
2018-12-01T10:09:12.655Z,997.87
2018-12-01T10:10:18.824Z,997.84
2018-12-01T10:11:25.028Z,997.84
2018-12-01T10:12:31.216Z,997.81
2018-12-01T10:13:37.401Z,997.81
2018-12-01T10:14:43.618Z,997.79
2018-12-01T10:15:49.782Z,997.79
2018-12-01T10:16:55.990Z,997.78
2018-12-01T10:18:02.191Z,997.79
2018-12-01T10:19:10.084Z,997.79
2018-12-01T10:20:15.041Z,997.80
2018-12-01T10:21:20.766Z,997.76
2018-12-01T10:22:26.968Z,997.73
2018-12-01T10:23:33.156Z,997.73
2018-12-01T10:24:39.359Z,997.77
2018-12-01T10:25:45.555Z,997.77
2018-12-01T10:26:51.875Z,997.77
2018-12-01T10:29:04.203Z,997.73
2018-12-01T10:30:10.350Z,997.75
2018-12-01T10:31:16.564Z,997.80
2018-12-01T10:32:22.757Z,997.76
2018-12-01T10:33:28.968Z,997.74
2018-12-01T10:34:35.161Z,997.77
2018-12-01T10:35:41.848Z,997.71
2018-12-01T10:36:47.574Z,997.71
2018-12-01T10:37:53.776Z,997.69
2018-12-01T10:39:03.697Z,997.61
2018-12-01T10:40:06.179Z,997.66
2018-12-01T10:41:12.393Z,997.61
2018-12-01T10:42:18.601Z,997.61
2018-12-01T10:43:24.789Z,997.70
2018-12-01T10:44:30.992Z,997.65
2018-12-01T10:45:37.200Z,997.69
2018-12-01T10:46:43.411Z,997.74
2018-12-01T10:47:49.616Z,997.67
2018-12-01T10:48:55.802Z,997.74
2018-12-01T10:50:02.012Z,997.77
2018-12-01T10:51:09.221Z,997.72
2018-12-01T10:52:14.433Z,997.66
2018-12-01T10:53:20.652Z,997.66
2018-12-01T10:54:26.869Z,997.70
2018-12-01T10:55:33.092Z,997.63
2018-12-01T10:56:39.305Z,997.63
2018-12-01T10:57:45.533Z,997.59
2018-12-01T10:58:51.751Z,997.56
2018-12-01T10:59:57.981Z,997.52
2018-12-01T11:01:04.200Z,997.49
2018-12-01T11:02:10.430Z,997.42
2018-12-01T11:03:16.660Z,997.44
2018-12-01T11:04:22.877Z,997.39
2018-12-01T11:05:29.086Z,997.37
2018-12-01T11:06:35.305Z,997.31
2018-12-01T11:07:41.533Z,997.33
2018-12-01T11:08:47.759Z,997.38
2018-12-01T11:09:53.963Z,997.33
2018-12-01T11:11:01.176Z,997.31
2018-12-01T11:12:06.402Z,997.34
2018-12-01T11:13:12.635Z,997.26
2018-12-01T11:14:18.870Z,997.19
2018-12-01T11:15:25.086Z,997.20
2018-12-01T11:16:31.316Z,997.16
2018-12-01T11:17:37.543Z,997.13
2018-12-01T11:18:43.779Z,997.09
2018-12-01T11:19:50.006Z,997.11
2018-12-01T11:20:56.247Z,997.13
2018-12-01T11:22:02.580Z,997.09
2018-12-01T11:23:08.694Z,997.08
2018-12-01T11:24:14.935Z,997.07
2018-12-01T11:25:21.970Z,997.11
2018-12-01T11:26:27.397Z,997.07
2018-12-01T11:27:33.775Z,997.05
2018-12-01T11:28:39.872Z,997.00
2018-12-01T11:29:46.120Z,997.01
2018-12-01T11:30:53.331Z,996.96
2018-12-01T11:31:58.571Z,996.91
2018-12-01T11:33:04.838Z,996.91
2018-12-01T11:34:11.056Z,996.91
2018-12-01T11:35:17.301Z,996.84
2018-12-01T11:36:23.598Z,996.86
2018-12-01T11:37:29.792Z,996.84
2018-12-01T11:38:36.069Z,996.76
2018-12-01T11:39:42.282Z,996.64
2018-12-01T11:40:48.534Z,996.65
2018-12-01T11:41:54.787Z,996.69
2018-12-01T11:43:01.038Z,996.61
2018-12-01T11:44:07.305Z,996.60
2018-12-01T11:45:13.560Z,996.47
2018-12-01T11:46:19.813Z,996.44
2018-12-01T11:47:26.090Z,996.39
2018-12-01T11:48:32.327Z,996.29
2018-12-01T11:49:38.596Z,996.32
2018-12-01T11:50:44.834Z,996.32
2018-12-01T11:51:51.097Z,996.29
2018-12-01T11:52:57.350Z,996.26
2018-12-01T11:54:03.621Z,996.28
2018-12-01T11:55:09.866Z,996.34
2018-12-01T11:56:16.118Z,996.35
2018-12-01T11:57:22.386Z,996.41
2018-12-01T11:58:28.644Z,996.48
2018-12-01T11:59:34.885Z,996.52
2018-12-01T12:00:41.140Z,996.49
2018-12-01T12:01:47.591Z,996.48
2018-12-01T12:02:53.649Z,996.48
2018-12-01T12:03:59.901Z,996.49
2018-12-01T12:05:06.133Z,996.51
2018-12-01T12:06:12.381Z,996.50
2018-12-01T12:07:18.635Z,996.43
2018-12-01T12:08:24.876Z,996.41
2018-12-01T12:09:31.144Z,996.36
2018-12-01T12:10:37.379Z,996.38
2018-12-01T12:11:43.620Z,996.37
2018-12-01T12:12:49.865Z,996.37
2018-12-01T12:13:56.114Z,996.46
2018-12-01T12:15:03.381Z,996.45
2018-12-01T12:16:08.620Z,996.48
2018-12-01T12:17:14.875Z,996.41
2018-12-01T12:18:21.120Z,996.48
2018-12-01T12:19:27.384Z,996.52
2018-12-01T12:20:33.617Z,996.49
2018-12-01T12:21:39.869Z,996.50
2018-12-01T12:22:46.124Z,996.50
2018-12-01T12:23:52.378Z,996.54
2018-12-01T12:24:58.646Z,996.59
2018-12-01T12:26:04.870Z,996.59
2018-12-01T12:27:11.116Z,996.58
2018-12-01T12:28:17.360Z,996.59
2018-12-01T12:29:23.603Z,996.53
2018-12-01T12:30:29.855Z,996.56
2018-12-01T12:31:36.103Z,996.55
2018-12-01T12:32:42.347Z,996.54
2018-12-01T12:33:48.619Z,996.52
2018-12-01T12:34:54.842Z,996.56
2018-12-01T12:36:01.093Z,996.56
2018-12-01T12:37:07.329Z,996.61
2018-12-01T12:38:13.579Z,996.59
2018-12-01T12:39:19.826Z,996.55
2018-12-01T12:40:26.068Z,996.56
2018-12-01T12:41:32.301Z,996.49
2018-12-01T12:42:38.545Z,996.44
2018-12-01T12:43:45.281Z,996.50
2018-12-01T12:44:51.034Z,996.37
2018-12-01T12:45:57.277Z,996.33
2018-12-01T12:47:03.523Z,996.24
2018-12-01T12:48:09.764Z,996.17
2018-12-01T12:49:16.011Z,996.12
2018-12-01T12:50:22.290Z,996.13
2018-12-01T12:51:28.597Z,996.13
2018-12-01T12:52:34.744Z,996.10
2018-12-01T12:53:40.985Z,995.94
2018-12-01T12:54:47.223Z,995.96
2018-12-01T12:55:53.475Z,996.04
2018-12-01T12:56:59.713Z,996.13
2018-12-01T12:58:05.937Z,996.11
2018-12-01T12:59:12.196Z,996.11
2018-12-01T13:00:18.420Z,996.11
2018-12-01T13:01:24.651Z,996.12
2018-12-01T13:02:30.895Z,996.15
2018-12-01T13:03:37.105Z,996.20
2018-12-01T13:04:43.332Z,996.18
2018-12-01T13:05:49.566Z,996.20
2018-12-01T13:06:55.786Z,996.17
2018-12-01T13:08:02.010Z,996.15
2018-12-01T13:09:08.331Z,996.15
2018-12-01T13:10:14.571Z,996.14
2018-12-01T13:11:20.671Z,996.13
2018-12-01T13:12:26.882Z,996.10
2018-12-01T13:13:33.102Z,996.02
2018-12-01T13:14:39.327Z,996.05
2018-12-01T13:15:45.533Z,996.10
2018-12-01T13:16:51.745Z,996.10
2018-12-01T13:17:57.951Z,996.06
2018-12-01T13:19:04.159Z,996.03
2018-12-01T13:20:10.389Z,996.03
2018-12-01T13:21:16.602Z,996.10
2018-12-01T13:22:22.803Z,996.11
2018-12-01T13:23:29.017Z,996.08
2018-12-01T13:24:35.224Z,996.12
2018-12-01T13:25:41.441Z,996.14
2018-12-01T13:26:47.647Z,996.17
2018-12-01T13:27:53.854Z,996.13
2018-12-01T13:29:00.056Z,996.10
2018-12-01T13:30:06.273Z,996.04
2018-12-01T13:31:12.584Z,996.04
2018-12-01T13:32:18.691Z,995.95
2018-12-01T13:33:24.886Z,995.97
2018-12-01T13:34:31.099Z,995.95
2018-12-01T13:35:37.315Z,995.95
2018-12-01T13:36:43.520Z,995.95
2018-12-01T13:37:49.728Z,995.94
2018-12-01T13:38:55.924Z,995.96
2018-12-01T13:40:02.142Z,995.98
2018-12-01T13:41:08.365Z,995.87
2018-12-01T13:42:14.560Z,995.86
2018-12-01T13:43:20.779Z,995.89
2018-12-01T13:44:26.987Z,995.85
2018-12-01T13:45:33.655Z,995.87
2018-12-01T13:46:39.413Z,995.86